Pagrindinis puslapis
METAR-TAF:

METAR-TAF

Oro uostai :

Jinotega, Nikaragva

platuma: 13-05N, ilguma: 085-59W, Aukštis: 985 m

Dabartinis oras

Ataskaita buvo paskelbta 39 minutes, ne 16:00 UTC
Vėjas 4 kt iš Šiaurės/Šiaurės Rytų
Temperatūra 23°C
Drėgmė 89%
Slėgis 1015 hPa
Matomumas: 5000 m
Su prošvaistėmis ne aukštis 1600 ft
rūkana

METAR: MNJG 171600Z 03004KT 5000 BKN016 23/21 Q1015 BR

Laikas: 10:39 (16:39 UTC)


TAF: trūkstamas

Orai ataskaitas ir orų prognozės (METAR, TAF).

turimą stotys yra geltonos ir raudonos taškus žemėlapyje.

Perkelti pele per norėdami pamatyti stoties vardą.

Tada spustelėkite, norėdami matyti oro stebėjimo ir prognozės.

Norėdami pakeisti žemėlapį: spustelėkite ant žalios mygtukų su juodo kryžiaus žemyn,; žalią mygtuką su brūkšneliu, jei norite nutolinti; arba žalių rodyklių gretimoms žemėlapius.


METAR-TAF: